sensor_id;sensor_type;location;lat;lon;timestamp;temperature;humidity
64918;HTU21D;52176;44.858;38.372;2023-04-21T00:01:41;11.45;84.00
64918;HTU21D;52176;44.858;38.372;2023-04-21T00:04:06;11.46;83.97
64918;HTU21D;52176;44.858;38.372;2023-04-21T00:06:34;11.46;83.96
64918;HTU21D;52176;44.858;38.372;2023-04-21T00:09:01;11.46;84.00
64918;HTU21D;52176;44.858;38.372;2023-04-21T00:11:26;11.46;83.98
64918;HTU21D;52176;44.858;38.372;2023-04-21T00:13:52;11.47;83.98
64918;HTU21D;52176;44.858;38.372;2023-04-21T00:16:18;11.47;83.95
64918;HTU21D;52176;44.858;38.372;2023-04-21T00:18:44;11.47;83.95
64918;HTU21D;52176;44.858;38.372;2023-04-21T00:21:09;11.47;83.94
64918;HTU21D;52176;44.858;38.372;2023-04-21T00:23:35;11.46;83.96
64918;HTU21D;52176;44.858;38.372;2023-04-21T00:26:01;11.48;83.94
64918;HTU21D;52176;44.858;38.372;2023-04-21T00:28:27;11.48;83.89
64918;HTU21D;52176;44.858;38.372;2023-04-21T00:30:53;11.48;83.87
64918;HTU21D;52176;44.858;38.372;2023-04-21T00:33:19;11.47;83.83
64918;HTU21D;52176;44.858;38.372;2023-04-21T00:35:45;11.55;85.49
64918;HTU21D;52176;44.858;38.372;2023-04-21T00:38:11;11.63;84.78
64918;HTU21D;52176;44.858;38.372;2023-04-21T00:40:36;11.63;84.31
64918;HTU21D;52176;44.858;38.372;2023-04-21T00:43:06;11.57;84.10
64918;HTU21D;52176;44.858;38.372;2023-04-21T00:45:32;11.49;84.03
64918;HTU21D;52176;44.858;38.372;2023-04-21T00:47:58;11.42;84.05
64918;HTU21D;52176;44.858;38.372;2023-04-21T00:50:23;11.33;84.12
64918;HTU21D;52176;44.858;38.372;2023-04-21T00:52:49;11.29;84.16
64918;HTU21D;52176;44.858;38.372;2023-04-21T00:55:15;11.24;84.15
64918;HTU21D;52176;44.858;38.372;2023-04-21T00:57:41;11.16;84.21
64918;HTU21D;52176;44.858;38.372;2023-04-21T01:00:08;11.10;84.26
64918;HTU21D;52176;44.858;38.372;2023-04-21T01:02:35;11.09;84.26
64918;HTU21D;52176;44.858;38.372;2023-04-21T01:05:05;11.03;84.22
64918;HTU21D;52176;44.858;38.372;2023-04-21T01:07:36;10.98;84.19
64918;HTU21D;52176;44.858;38.372;2023-04-21T01:10:02;10.92;84.13
64918;HTU21D;52176;44.858;38.372;2023-04-21T01:12:29;10.82;84.06
64918;HTU21D;52176;44.858;38.372;2023-04-21T01:14:57;10.72;84.15
64918;HTU21D;52176;44.858;38.372;2023-04-21T01:17:23;10.64;84.30
64918;HTU21D;52176;44.858;38.372;2023-04-21T01:19:49;10.56;84.39
64918;HTU21D;52176;44.858;38.372;2023-04-21T01:22:15;10.51;84.50
64918;HTU21D;52176;44.858;38.372;2023-04-21T01:24:42;10.51;86.46
64918;HTU21D;52176;44.858;38.372;2023-04-21T01:27:11;10.54;85.72
64918;HTU21D;52176;44.858;38.372;2023-04-21T01:29:37;10.55;86.53
64918;HTU21D;52176;44.858;38.372;2023-04-21T01:32:07;10.60;85.76
64918;HTU21D;52176;44.858;38.372;2023-04-21T01:34:33;10.56;85.34
64918;HTU21D;52176;44.858;38.372;2023-04-21T01:36:59;10.49;85.12
64918;HTU21D;52176;44.858;38.372;2023-04-21T01:39:25;10.40;85.02
64918;HTU21D;52176;44.858;38.372;2023-04-21T01:41:51;10.31;85.03
64918;HTU21D;52176;44.858;38.372;2023-04-21T01:44:17;10.23;85.06
64918;HTU21D;52176;44.858;38.372;2023-04-21T01:46:43;10.18;85.07
64918;HTU21D;52176;44.858;38.372;2023-04-21T01:49:08;10.13;85.08
64918;HTU21D;52176;44.858;38.372;2023-04-21T01:51:34;10.10;85.00
64918;HTU21D;52176;44.858;38.372;2023-04-21T01:54:00;10.08;84.97
64918;HTU21D;52176;44.858;38.372;2023-04-21T01:56:26;10.08;86.54
64918;HTU21D;52176;44.858;38.372;2023-04-21T01:58:51;10.15;85.86
64918;HTU21D;52176;44.858;38.372;2023-04-21T02:01:17;10.16;85.48
64918;HTU21D;52176;44.858;38.372;2023-04-21T02:03:43;10.13;85.22
64918;HTU21D;52176;44.858;38.372;2023-04-21T02:06:10;10.13;86.66
64918;HTU21D;52176;44.858;38.372;2023-04-21T02:08:36;10.21;85.96
64918;HTU21D;52176;44.858;38.372;2023-04-21T02:11:01;10.24;85.62
64918;HTU21D;52176;44.858;38.372;2023-04-21T02:13:27;10.24;85.38
64918;HTU21D;52176;44.858;38.372;2023-04-21T02:15:53;10.23;85.29
64918;HTU21D;52176;44.858;38.372;2023-04-21T02:18:19;10.23;85.25
64918;HTU21D;52176;44.858;38.372;2023-04-21T02:20:46;10.21;85.18
64918;HTU21D;52176;44.858;38.372;2023-04-21T02:23:12;10.20;85.18
64918;HTU21D;52176;44.858;38.372;2023-04-21T02:25:38;10.27;87.09
64918;HTU21D;52176;44.858;38.372;2023-04-21T02:28:04;10.41;87.26
64918;HTU21D;52176;44.858;38.372;2023-04-21T02:30:29;10.53;86.36
64918;HTU21D;52176;44.858;38.372;2023-04-21T02:32:55;10.57;85.83
64918;HTU21D;52176;44.858;38.372;2023-04-21T02:35:21;10.60;86.60
64918;HTU21D;52176;44.858;38.372;2023-04-21T02:37:49;10.69;85.86
64918;HTU21D;52176;44.858;38.372;2023-04-21T02:40:15;10.71;85.44
64918;HTU21D;52176;44.858;38.372;2023-04-21T02:42:41;10.72;85.21
64918;HTU21D;52176;44.858;38.372;2023-04-21T02:45:08;10.69;84.93
64918;HTU21D;52176;44.858;38.372;2023-04-21T02:47:34;10.64;84.93
64918;HTU21D;52176;44.858;38.372;2023-04-21T02:50:00;10.60;84.90
64918;HTU21D;52176;44.858;38.372;2023-04-21T02:52:26;10.59;84.88
64918;HTU21D;52176;44.858;38.372;2023-04-21T02:54:52;10.59;84.86
64918;HTU21D;52176;44.858;38.372;2023-04-21T02:57:18;10.57;84.84
64918;HTU21D;52176;44.858;38.372;2023-04-21T02:59:44;10.57;84.77
64918;HTU21D;52176;44.858;38.372;2023-04-21T03:02:10;10.65;86.20
64918;HTU21D;52176;44.858;38.372;2023-04-21T03:04:37;10.81;86.28
64918;HTU21D;52176;44.858;38.372;2023-04-21T03:07:03;10.93;85.46
64918;HTU21D;52176;44.858;38.372;2023-04-21T03:09:28;10.96;85.03
64918;HTU21D;52176;44.858;38.372;2023-04-21T03:11:54;10.95;84.83
64918;HTU21D;52176;44.858;38.372;2023-04-21T03:14:20;10.92;84.69
64918;HTU21D;52176;44.858;38.372;2023-04-21T03:16:46;10.90;84.62
64918;HTU21D;52176;44.858;38.372;2023-04-21T03:19:12;10.89;84.55
64918;HTU21D;52176;44.858;38.372;2023-04-21T03:21:38;10.88;84.48
64918;HTU21D;52176;44.858;38.372;2023-04-21T03:24:04;10.89;84.43
64918;HTU21D;52176;44.858;38.372;2023-04-21T03:26:30;10.92;84.36
64918;HTU21D;52176;44.858;38.372;2023-04-21T03:28:56;10.92;84.15
64918;HTU21D;52176;44.858;38.372;2023-04-21T03:31:22;10.93;84.09
64918;HTU21D;52176;44.858;38.372;2023-04-21T03:33:48;10.96;84.05
64918;HTU21D;52176;44.858;38.372;2023-04-21T03:36:14;11.00;84.01
64918;HTU21D;52176;44.858;38.372;2023-04-21T03:38:40;11.07;83.91
64918;HTU21D;52176;44.858;38.372;2023-04-21T03:41:06;11.13;83.82
64918;HTU21D;52176;44.858;38.372;2023-04-21T03:43:32;11.19;83.70
64918;HTU21D;52176;44.858;38.372;2023-04-21T03:45:58;11.26;83.58
64918;HTU21D;52176;44.858;38.372;2023-04-21T03:48:23;11.33;83.45
64918;HTU21D;52176;44.858;38.372;2023-04-21T03:50:49;11.38;83.35
64918;HTU21D;52176;44.858;38.372;2023-04-21T03:53:15;11.42;83.28
64918;HTU21D;52176;44.858;38.372;2023-04-21T03:55:40;11.47;83.17
64918;HTU21D;52176;44.858;38.372;2023-04-21T03:58:06;11.47;83.16
64918;HTU21D;52176;44.858;38.372;2023-04-21T04:00:32;11.51;83.17
64918;HTU21D;52176;44.858;38.372;2023-04-21T04:02:58;11.53;83.24
64918;HTU21D;52176;44.858;38.372;2023-04-21T04:05:24;11.55;83.32
64918;HTU21D;52176;44.858;38.372;2023-04-21T04:07:49;11.57;83.42
64918;HTU21D;52176;44.858;38.372;2023-04-21T04:10:15;11.63;83.55
64918;HTU21D;52176;44.858;38.372;2023-04-21T04:12:41;11.69;83.61
64918;HTU21D;52176;44.858;38.372;2023-04-21T04:15:07;11.76;83.54
64918;HTU21D;52176;44.858;38.372;2023-04-21T04:17:33;11.81;83.51
64918;HTU21D;52176;44.858;38.372;2023-04-21T04:19:59;11.86;83.48
64918;HTU21D;52176;44.858;38.372;2023-04-21T04:22:26;11.92;83.47
64918;HTU21D;52176;44.858;38.372;2023-04-21T04:24:52;12.02;83.43
64918;HTU21D;52176;44.858;38.372;2023-04-21T04:27:17;12.10;83.39
64918;HTU21D;52176;44.858;38.372;2023-04-21T04:29:45;12.16;83.35
64918;HTU21D;52176;44.858;38.372;2023-04-21T04:32:10;12.16;83.40
64918;HTU21D;52176;44.858;38.372;2023-04-21T04:34:36;12.17;83.38
64918;HTU21D;52176;44.858;38.372;2023-04-21T04:37:02;12.20;83.49
64918;HTU21D;52176;44.858;38.372;2023-04-21T04:39:29;12.21;83.52
64918;HTU21D;52176;44.858;38.372;2023-04-21T04:41:55;12.28;83.58
64918;HTU21D;52176;44.858;38.372;2023-04-21T04:44:21;12.30;83.61
64918;HTU21D;52176;44.858;38.372;2023-04-21T04:46:48;12.35;83.60
64918;HTU21D;52176;44.858;38.372;2023-04-21T04:49:14;12.46;83.61
64918;HTU21D;52176;44.858;38.372;2023-04-21T04:51:40;12.58;83.49
64918;HTU21D;52176;44.858;38.372;2023-04-21T04:54:05;12.72;83.32
64918;HTU21D;52176;44.858;38.372;2023-04-21T04:56:31;12.85;83.16
64918;HTU21D;52176;44.858;38.372;2023-04-21T04:58:57;13.01;83.10
64918;HTU21D;52176;44.858;38.372;2023-04-21T05:01:23;13.30;82.97
64918;HTU21D;52176;44.858;38.372;2023-04-21T05:03:54;13.70;82.65
64918;HTU21D;52176;44.858;38.372;2023-04-21T05:06:20;14.10;81.91
64918;HTU21D;52176;44.858;38.372;2023-04-21T05:08:46;14.23;81.41
64918;HTU21D;52176;44.858;38.372;2023-04-21T05:11:12;14.22;81.22
64918;HTU21D;52176;44.858;38.372;2023-04-21T05:13:37;14.06;81.06
64918;HTU21D;52176;44.858;38.372;2023-04-21T05:16:03;14.18;80.86
64918;HTU21D;52176;44.858;38.372;2023-04-21T05:18:29;14.23;80.69
64918;HTU21D;52176;44.858;38.372;2023-04-21T05:20:55;14.29;80.57
64918;HTU21D;52176;44.858;38.372;2023-04-21T05:23:21;14.36;80.47
64918;HTU21D;52176;44.858;38.372;2023-04-21T05:25:47;14.42;80.17
64918;HTU21D;52176;44.858;38.372;2023-04-21T05:28:12;14.43;79.35
64918;HTU21D;52176;44.858;38.372;2023-04-21T05:30:39;14.51;79.34
64918;HTU21D;52176;44.858;38.372;2023-04-21T05:33:05;14.78;79.08
64918;HTU21D;52176;44.858;38.372;2023-04-21T05:35:31;14.92;78.06
64918;HTU21D;52176;44.858;38.372;2023-04-21T05:37:57;14.86;77.79
64918;HTU21D;52176;44.858;38.372;2023-04-21T05:40:23;14.80;77.63
64918;HTU21D;52176;44.858;38.372;2023-04-21T05:42:49;14.82;77.62
64918;HTU21D;52176;44.858;38.372;2023-04-21T05:45:14;14.87;77.36
64918;HTU21D;52176;44.858;38.372;2023-04-21T05:47:40;15.02;77.22
64918;HTU21D;52176;44.858;38.372;2023-04-21T05:50:06;15.21;77.02
64918;HTU21D;52176;44.858;38.372;2023-04-21T05:52:32;15.65;76.41
64918;HTU21D;52176;44.858;38.372;2023-04-21T05:54:59;16.15;75.31
64918;HTU21D;52176;44.858;38.372;2023-04-21T05:57:25;16.48;74.70
64918;HTU21D;52176;44.858;38.372;2023-04-21T05:59:51;16.66;73.56
64918;HTU21D;52176;44.858;38.372;2023-04-21T06:02:16;16.73;73.25
64918;HTU21D;52176;44.858;38.372;2023-04-21T06:04:42;16.72;73.15
64918;HTU21D;52176;44.858;38.372;2023-04-21T06:07:08;16.76;73.22
64918;HTU21D;52176;44.858;38.372;2023-04-21T06:09:35;17.04;73.15
64918;HTU21D;52176;44.858;38.372;2023-04-21T06:12:01;17.32;72.19
64918;HTU21D;52176;44.858;38.372;2023-04-21T06:14:27;17.40;71.75
64918;HTU21D;52176;44.858;38.372;2023-04-21T06:16:53;17.34;71.51
64918;HTU21D;52176;44.858;38.372;2023-04-21T06:19:19;17.25;71.01
64918;HTU21D;52176;44.858;38.372;2023-04-21T06:21:44;17.15;70.97
64918;HTU21D;52176;44.858;38.372;2023-04-21T06:24:11;17.06;71.03
64918;HTU21D;52176;44.858;38.372;2023-04-21T06:26:36;16.98;70.35
64918;HTU21D;52176;44.858;38.372;2023-04-21T06:29:02;16.96;70.22
64918;HTU21D;52176;44.858;38.372;2023-04-21T06:31:28;17.05;70.45
64918;HTU21D;52176;44.858;38.372;2023-04-21T06:33:53;17.72;70.42
64918;HTU21D;52176;44.858;38.372;2023-04-21T06:36:19;18.71;68.68
64918;HTU21D;52176;44.858;38.372;2023-04-21T06:38:47;19.16;66.67
64918;HTU21D;52176;44.858;38.372;2023-04-21T06:41:13;19.05;66.10
64918;HTU21D;52176;44.858;38.372;2023-04-21T06:43:39;18.71;66.19
64918;HTU21D;52176;44.858;38.372;2023-04-21T06:46:04;18.36;65.73
64918;HTU21D;52176;44.858;38.372;2023-04-21T06:48:30;18.04;65.64
64918;HTU21D;52176;44.858;38.372;2023-04-21T06:50:56;17.70;65.39
64918;HTU21D;52176;44.858;38.372;2023-04-21T06:53:22;17.40;65.74
64918;HTU21D;52176;44.858;38.372;2023-04-21T06:55:48;17.18;66.56
64918;HTU21D;52176;44.858;38.372;2023-04-21T06:58:13;17.17;67.09
64918;HTU21D;52176;44.858;38.372;2023-04-21T07:00:40;17.26;66.66
64918;HTU21D;52176;44.858;38.372;2023-04-21T07:03:06;17.43;65.98
64918;HTU21D;52176;44.858;38.372;2023-04-21T07:05:31;17.46;65.84
64918;HTU21D;52176;44.858;38.372;2023-04-21T07:07:57;17.46;65.74
64918;HTU21D;52176;44.858;38.372;2023-04-21T07:10:26;17.82;65.69
64918;HTU21D;52176;44.858;38.372;2023-04-21T07:12:52;18.18;64.64
64918;HTU21D;52176;44.858;38.372;2023-04-21T07:15:18;18.22;64.48
64918;HTU21D;52176;44.858;38.372;2023-04-21T07:17:44;18.41;64.47
64918;HTU21D;52176;44.858;38.372;2023-04-21T07:20:10;18.47;63.78
64918;HTU21D;52176;44.858;38.372;2023-04-21T07:22:36;18.29;63.79
64918;HTU21D;52176;44.858;38.372;2023-04-21T07:25:02;18.18;63.81
64918;HTU21D;52176;44.858;38.372;2023-04-21T07:27:31;18.80;63.97
64918;HTU21D;52176;44.858;38.372;2023-04-21T07:29:57;19.77;62.41
64918;HTU21D;52176;44.858;38.372;2023-04-21T07:32:23;20.72;60.44
64918;HTU21D;52176;44.858;38.372;2023-04-21T07:34:48;21.45;59.03
64918;HTU21D;52176;44.858;38.372;2023-04-21T07:37:14;22.16;57.80
64918;HTU21D;52176;44.858;38.372;2023-04-21T07:39:40;22.57;56.61
64918;HTU21D;52176;44.858;38.372;2023-04-21T07:42:06;23.07;56.52
64918;HTU21D;52176;44.858;38.372;2023-04-21T07:44:33;23.81;53.91
64918;HTU21D;52176;44.858;38.372;2023-04-21T07:46:59;24.32;52.53
64918;HTU21D;52176;44.858;38.372;2023-04-21T07:49:24;24.38;52.26
64918;HTU21D;52176;44.858;38.372;2023-04-21T07:51:50;24.45;51.11
64918;HTU21D;52176;44.858;38.372;2023-04-21T07:54:16;24.16;50.38
64918;HTU21D;52176;44.858;38.372;2023-04-21T07:56:42;23.32;51.25
64918;HTU21D;52176;44.858;38.372;2023-04-21T07:59:07;22.47;52.15
64918;HTU21D;52176;44.858;38.372;2023-04-21T08:01:33;21.74;52.85
64918;HTU21D;52176;44.858;38.372;2023-04-21T08:03:59;21.18;53.25
64918;HTU21D;52176;44.858;38.372;2023-04-21T08:06:25;20.75;54.33
64918;HTU21D;52176;44.858;38.372;2023-04-21T08:08:52;20.49;54.92
64918;HTU21D;52176;44.858;38.372;2023-04-21T08:11:19;20.41;54.71
64918;HTU21D;52176;44.858;38.372;2023-04-21T08:13:45;20.10;54.71
64918;HTU21D;52176;44.858;38.372;2023-04-21T08:16:11;19.79;55.37
64918;HTU21D;52176;44.858;38.372;2023-04-21T08:18:37;19.52;55.96
64918;HTU21D;52176;44.858;38.372;2023-04-21T08:21:02;19.30;56.08
64918;HTU21D;52176;44.858;38.372;2023-04-21T08:23:28;19.06;56.43
64918;HTU21D;52176;44.858;38.372;2023-04-21T08:25:55;18.85;57.10
64918;HTU21D;52176;44.858;38.372;2023-04-21T08:28:21;18.74;57.64
64918;HTU21D;52176;44.858;38.372;2023-04-21T08:30:47;18.58;57.60
64918;HTU21D;52176;44.858;38.372;2023-04-21T08:33:12;18.38;57.93
64918;HTU21D;52176;44.858;38.372;2023-04-21T08:35:41;18.15;58.32
64918;HTU21D;52176;44.858;38.372;2023-04-21T08:38:07;17.96;58.96
64918;HTU21D;52176;44.858;38.372;2023-04-21T08:40:33;17.78;59.17
64918;HTU21D;52176;44.858;38.372;2023-04-21T08:43:00;17.61;59.23
64918;HTU21D;52176;44.858;38.372;2023-04-21T08:45:29;17.40;59.80
64918;HTU21D;52176;44.858;38.372;2023-04-21T08:47:55;17.29;60.22
64918;HTU21D;52176;44.858;38.372;2023-04-21T08:50:20;17.18;60.65
64918;HTU21D;52176;44.858;38.372;2023-04-21T08:52:51;17.09;60.89
64918;HTU21D;52176;44.858;38.372;2023-04-21T08:55:18;17.05;61.28
64918;HTU21D;52176;44.858;38.372;2023-04-21T08:57:44;17.00;61.58
64918;HTU21D;52176;44.858;38.372;2023-04-21T09:00:10;16.94;61.65
64918;HTU21D;52176;44.858;38.372;2023-04-21T09:05:33;17.66;62.06
64918;HTU21D;52176;44.858;38.372;2023-04-21T09:08:09;18.61;60.28
64918;HTU21D;52176;44.858;38.372;2023-04-21T09:14:10;20.78;56.55
64918;HTU21D;52176;44.858;38.372;2023-04-21T09:16:36;21.66;55.26
64918;HTU21D;52176;44.858;38.372;2023-04-21T09:19:02;21.87;54.52
64918;HTU21D;52176;44.858;38.372;2023-04-21T09:21:27;21.57;54.59
64918;HTU21D;52176;44.858;38.372;2023-04-21T09:23:53;21.17;55.28
64918;HTU21D;52176;44.858;38.372;2023-04-21T09:26:22;21.47;55.37
64918;HTU21D;52176;44.858;38.372;2023-04-21T09:28:48;22.43;54.15
64918;HTU21D;52176;44.858;38.372;2023-04-21T09:31:15;23.31;51.69
64918;HTU21D;52176;44.858;38.372;2023-04-21T09:33:48;23.30;51.12
64918;HTU21D;52176;44.858;38.372;2023-04-21T09:36:16;23.34;51.63
64918;HTU21D;52176;44.858;38.372;2023-04-21T09:38:42;23.29;51.10
64918;HTU21D;52176;44.858;38.372;2023-04-21T09:41:12;22.81;51.12
64918;HTU21D;52176;44.858;38.372;2023-04-21T09:43:41;22.34;51.91
64918;HTU21D;52176;44.858;38.372;2023-04-21T09:46:07;21.95;52.55
64918;HTU21D;52176;44.858;38.372;2023-04-21T09:48:34;21.43;52.96
64918;HTU21D;52176;44.858;38.372;2023-04-21T09:51:00;20.81;53.98
64918;HTU21D;52176;44.858;38.372;2023-04-21T09:53:26;20.20;54.97
64918;HTU21D;52176;44.858;38.372;2023-04-21T09:55:53;19.71;56.13
64918;HTU21D;52176;44.858;38.372;2023-04-21T09:58:21;19.32;57.03
64918;HTU21D;52176;44.858;38.372;2023-04-21T10:00:49;18.99;57.66
64918;HTU21D;52176;44.858;38.372;2023-04-21T10:03:15;18.72;58.28
64918;HTU21D;52176;44.858;38.372;2023-04-21T10:05:42;18.49;58.90
64918;HTU21D;52176;44.858;38.372;2023-04-21T10:08:08;18.30;59.38
64918;HTU21D;52176;44.858;38.372;2023-04-21T10:10:35;18.07;59.89
64918;HTU21D;52176;44.858;38.372;2023-04-21T10:13:03;17.81;60.53
64918;HTU21D;52176;44.858;38.372;2023-04-21T10:18:09;17.65;61.41
64918;HTU21D;52176;44.858;38.372;2023-04-21T10:20:49;17.54;61.70
64918;HTU21D;52176;44.858;38.372;2023-04-21T10:23:27;17.40;62.29
64918;HTU21D;52176;44.858;38.372;2023-04-21T10:25:54;17.28;63.17
64918;HTU21D;52176;44.858;38.372;2023-04-21T10:28:37;17.15;63.69
64918;HTU21D;52176;44.858;38.372;2023-04-21T10:31:19;17.04;64.40
64918;HTU21D;52176;44.858;38.372;2023-04-21T10:36:26;16.74;65.17
64918;HTU21D;52176;44.858;38.372;2023-04-21T10:38:54;16.77;65.55
64918;HTU21D;52176;44.858;38.372;2023-04-21T10:41:26;17.05;65.84
64918;HTU21D;52176;44.858;38.372;2023-04-21T10:44:28;17.66;65.43
64918;HTU21D;52176;44.858;38.372;2023-04-21T10:46:50;18.26;63.93
64918;HTU21D;52176;44.858;38.372;2023-04-21T10:54:42;18.58;61.88
64918;HTU21D;52176;44.858;38.372;2023-04-21T10:57:10;18.42;62.34
64918;HTU21D;52176;44.858;38.372;2023-04-21T10:59:37;18.29;62.74
64918;HTU21D;52176;44.858;38.372;2023-04-21T11:02:06;18.26;63.13
64918;HTU21D;52176;44.858;38.372;2023-04-21T11:04:32;18.21;63.14
64918;HTU21D;52176;44.858;38.372;2023-04-21T11:07:09;18.13;63.25
64918;HTU21D;52176;44.858;38.372;2023-04-21T11:09:35;18.42;63.37
64918;HTU21D;52176;44.858;38.372;2023-04-21T11:12:02;19.13;62.28
64918;HTU21D;52176;44.858;38.372;2023-04-21T11:18:04;19.48;59.95
64918;HTU21D;52176;44.858;38.372;2023-04-21T11:20:30;19.30;59.90
64918;HTU21D;52176;44.858;38.372;2023-04-21T11:22:56;19.22;60.40
64918;HTU21D;52176;44.858;38.372;2023-04-21T11:25:22;19.39;60.38
64918;HTU21D;52176;44.858;38.372;2023-04-21T11:27:54;19.54;59.86
64918;HTU21D;52176;44.858;38.372;2023-04-21T11:30:21;19.36;59.51
64918;HTU21D;52176;44.858;38.372;2023-04-21T11:32:52;19.15;60.08
64918;HTU21D;52176;44.858;38.372;2023-04-21T11:35:18;19.01;60.54
64918;HTU21D;52176;44.858;38.372;2023-04-21T11:37:44;18.79;60.58
64918;HTU21D;52176;44.858;38.372;2023-04-21T11:40:10;18.58;61.05
64918;HTU21D;52176;44.858;38.372;2023-04-21T11:42:36;18.40;61.37
64918;HTU21D;52176;44.858;38.372;2023-04-21T11:45:02;18.26;61.61
64918;HTU21D;52176;44.858;38.372;2023-04-21T11:47:28;18.19;61.78
64918;HTU21D;52176;44.858;38.372;2023-04-21T11:49:55;18.26;62.15
64918;HTU21D;52176;44.858;38.372;2023-04-21T11:52:25;18.53;61.50
64918;HTU21D;52176;44.858;38.372;2023-04-21T11:57:22;18.44;61.86
64918;HTU21D;52176;44.858;38.372;2023-04-21T11:59:50;18.28;62.53
64918;HTU21D;52176;44.858;38.372;2023-04-21T12:02:25;18.24;62.53
64918;HTU21D;52176;44.858;38.372;2023-04-21T12:04:58;18.03;62.82
64918;HTU21D;52176;44.858;38.372;2023-04-21T12:07:25;17.80;63.71
64918;HTU21D;52176;44.858;38.372;2023-04-21T12:09:52;17.61;64.56
64918;HTU21D;52176;44.858;38.372;2023-04-21T12:12:17;17.38;65.42
64918;HTU21D;52176;44.858;38.372;2023-04-21T12:14:44;17.11;66.15
64918;HTU21D;52176;44.858;38.372;2023-04-21T12:17:09;16.86;66.86
64918;HTU21D;52176;44.858;38.372;2023-04-21T12:19:39;16.62;67.52
64918;HTU21D;52176;44.858;38.372;2023-04-21T12:22:15;16.42;68.10
64918;HTU21D;52176;44.858;38.372;2023-04-21T12:24:43;16.28;68.64
64918;HTU21D;52176;44.858;38.372;2023-04-21T12:27:09;16.21;68.97
64918;HTU21D;52176;44.858;38.372;2023-04-21T12:29:35;16.26;69.19
64918;HTU21D;52176;44.858;38.372;2023-04-21T12:32:03;16.51;69.31
64918;HTU21D;52176;44.858;38.372;2023-04-21T12:34:29;16.55;68.60
64918;HTU21D;52176;44.858;38.372;2023-04-21T12:36:54;16.41;68.55
64918;HTU21D;52176;44.858;38.372;2023-04-21T12:39:20;16.21;68.81
64918;HTU21D;52176;44.858;38.372;2023-04-21T12:41:46;16.02;69.31
64918;HTU21D;52176;44.858;38.372;2023-04-21T12:44:13;15.86;69.29
64918;HTU21D;52176;44.858;38.372;2023-04-21T12:46:39;15.69;69.50
64918;HTU21D;52176;44.858;38.372;2023-04-21T12:49:05;15.60;69.77
64918;HTU21D;52176;44.858;38.372;2023-04-21T12:51:32;15.54;70.16
64918;HTU21D;52176;44.858;38.372;2023-04-21T12:53:58;15.49;70.17
64918;HTU21D;52176;44.858;38.372;2023-04-21T12:56:23;15.48;70.32
64918;HTU21D;52176;44.858;38.372;2023-04-21T12:58:49;15.74;70.51
64918;HTU21D;52176;44.858;38.372;2023-04-21T13:01:15;16.00;69.97
64918;HTU21D;52176;44.858;38.372;2023-04-21T13:03:41;16.14;69.35
64918;HTU21D;52176;44.858;38.372;2023-04-21T13:06:07;16.06;68.92
64918;HTU21D;52176;44.858;38.372;2023-04-21T13:08:33;15.91;68.96
64918;HTU21D;52176;44.858;38.372;2023-04-21T13:11:00;15.78;69.32
64918;HTU21D;52176;44.858;38.372;2023-04-21T13:13:26;15.66;69.52
64918;HTU21D;52176;44.858;38.372;2023-04-21T13:15:52;15.53;69.90
64918;HTU21D;52176;44.858;38.372;2023-04-21T13:18:18;15.38;70.07
64918;HTU21D;52176;44.858;38.372;2023-04-21T13:20:44;15.22;70.24
64918;HTU21D;52176;44.858;38.372;2023-04-21T13:23:10;15.16;70.48
64918;HTU21D;52176;44.858;38.372;2023-04-21T13:25:37;15.15;70.33
64918;HTU21D;52176;44.858;38.372;2023-04-21T13:28:03;15.14;70.36
64918;HTU21D;52176;44.858;38.372;2023-04-21T13:30:29;15.23;70.24
64918;HTU21D;52176;44.858;38.372;2023-04-21T13:32:55;15.37;70.09
64918;HTU21D;52176;44.858;38.372;2023-04-21T13:35:21;15.51;69.63
64918;HTU21D;52176;44.858;38.372;2023-04-21T13:37:47;15.54;69.16
64918;HTU21D;52176;44.858;38.372;2023-04-21T13:40:13;15.48;69.06
64918;HTU21D;52176;44.858;38.372;2023-04-21T13:42:39;15.39;68.94
64918;HTU21D;52176;44.858;38.372;2023-04-21T13:45:05;15.22;69.00
64918;HTU21D;52176;44.858;38.372;2023-04-21T13:47:31;15.06;69.25
64918;HTU21D;52176;44.858;38.372;2023-04-21T13:50:00;14.89;69.52
64918;HTU21D;52176;44.858;38.372;2023-04-21T13:52:26;14.72;69.94
64918;HTU21D;52176;44.858;38.372;2023-04-21T13:54:52;14.59;70.48
64918;HTU21D;52176;44.858;38.372;2023-04-21T13:57:18;14.48;70.93
64918;HTU21D;52176;44.858;38.372;2023-04-21T13:59:44;14.40;71.19
64918;HTU21D;52176;44.858;38.372;2023-04-21T14:02:10;14.42;71.43
64918;HTU21D;52176;44.858;38.372;2023-04-21T14:04:36;14.53;71.87
64918;HTU21D;52176;44.858;38.372;2023-04-21T14:07:02;14.66;71.84
64918;HTU21D;52176;44.858;38.372;2023-04-21T14:09:28;14.74;71.61
64918;HTU21D;52176;44.858;38.372;2023-04-21T14:11:54;14.75;71.43
64918;HTU21D;52176;44.858;38.372;2023-04-21T14:14:20;14.66;71.51
64918;HTU21D;52176;44.858;38.372;2023-04-21T14:16:46;14.51;71.85
64918;HTU21D;52176;44.858;38.372;2023-04-21T14:19:14;14.28;72.22
64918;HTU21D;52176;44.858;38.372;2023-04-21T14:21:41;14.11;72.73
64918;HTU21D;52176;44.858;38.372;2023-04-21T14:24:06;13.99;73.06
64918;HTU21D;52176;44.858;38.372;2023-04-21T14:26:33;13.88;73.24
64918;HTU21D;52176;44.858;38.372;2023-04-21T14:28:59;13.78;73.54
64918;HTU21D;52176;44.858;38.372;2023-04-21T14:31:26;13.74;73.67
64918;HTU21D;52176;44.858;38.372;2023-04-21T14:33:52;13.67;73.80
64918;HTU21D;52176;44.858;38.372;2023-04-21T14:36:17;13.61;73.93
64918;HTU21D;52176;44.858;38.372;2023-04-21T14:38:43;13.54;74.05
64918;HTU21D;52176;44.858;38.372;2023-04-21T14:41:09;13.47;74.12
64918;HTU21D;52176;44.858;38.372;2023-04-21T14:43:35;13.41;74.36
64918;HTU21D;52176;44.858;38.372;2023-04-21T14:46:01;13.33;74.53
64918;HTU21D;52176;44.858;38.372;2023-04-21T14:48:27;13.25;74.92
64918;HTU21D;52176;44.858;38.372;2023-04-21T14:50:53;13.15;75.13
64918;HTU21D;52176;44.858;38.372;2023-04-21T14:53:19;13.05;75.53
64918;HTU21D;52176;44.858;38.372;2023-04-21T14:55:45;12.96;75.63
64918;HTU21D;52176;44.858;38.372;2023-04-21T14:58:11;12.85;75.86
64918;HTU21D;52176;44.858;38.372;2023-04-21T15:00:37;12.75;76.14
64918;HTU21D;52176;44.858;38.372;2023-04-21T15:03:03;12.62;76.41
64918;HTU21D;52176;44.858;38.372;2023-04-21T15:05:29;12.52;76.76
64918;HTU21D;52176;44.858;38.372;2023-04-21T15:07:55;12.42;77.05
64918;HTU21D;52176;44.858;38.372;2023-04-21T15:10:21;12.34;77.22
64918;HTU21D;52176;44.858;38.372;2023-04-21T15:12:47;12.28;77.47
64918;HTU21D;52176;44.858;38.372;2023-04-21T15:15:12;12.21;77.71
64918;HTU21D;52176;44.858;38.372;2023-04-21T15:17:38;12.15;78.10
64918;HTU21D;52176;44.858;38.372;2023-04-21T15:20:04;12.11;79.27
64918;HTU21D;52176;44.858;38.372;2023-04-21T15:22:30;12.02;78.08